createdAt,value
2022-11-29T00:02:04.532Z,100083.77
2022-11-29T00:04:36.961Z,100083.98
2022-11-29T00:07:08.965Z,100086.98
2022-11-29T00:09:41.180Z,100089.79
2022-11-29T00:12:13.238Z,100084.56
2022-11-29T00:14:45.572Z,100083.55
2022-11-29T00:17:17.811Z,100087.84
2022-11-29T00:19:50.123Z,100088.28
2022-11-29T00:22:23.758Z,100088.75
2022-11-29T00:24:55.812Z,100091.34
2022-11-29T00:27:27.826Z,100086.23
2022-11-29T00:30:01.081Z,100085.07
2022-11-29T00:32:33.528Z,100085.06
2022-11-29T00:35:09.336Z,100087.89
2022-11-29T00:37:42.076Z,100087.59
2022-11-29T00:40:15.227Z,100085.52
2022-11-29T00:42:47.347Z,100083.11
2022-11-29T00:45:19.486Z,100084.70
2022-11-29T00:47:50.013Z,100080.00
2022-11-29T00:50:22.155Z,100077.98
2022-11-29T00:52:54.213Z,100075.33
2022-11-29T00:55:26.282Z,100071.47
2022-11-29T00:57:58.289Z,100074.61
2022-11-29T01:00:30.226Z,100069.31
2022-11-29T01:03:02.909Z,100071.56
2022-11-29T01:05:35.081Z,100071.13
2022-11-29T01:08:05.903Z,100068.63
2022-11-29T01:10:38.216Z,100067.37
2022-11-29T01:13:09.327Z,100065.73
2022-11-29T01:15:41.699Z,100066.92
2022-11-29T01:18:13.708Z,100061.41
2022-11-29T01:20:45.654Z,100065.69
2022-11-29T01:23:17.819Z,100064.66
2022-11-29T01:25:58.927Z,100064.16
2022-11-29T01:28:31.553Z,100068.01
2022-11-29T01:31:08.762Z,100070.48
2022-11-29T01:33:41.107Z,100064.94
2022-11-29T01:36:13.266Z,100066.36
2022-11-29T01:38:46.014Z,100068.92
2022-11-29T01:41:21.112Z,100066.34
2022-11-29T01:44:03.816Z,100070.64
2022-11-29T01:46:37.721Z,100068.98
2022-11-29T01:49:13.092Z,100067.05
2022-11-29T01:51:48.954Z,100068.02
2022-11-29T01:54:22.359Z,100068.13
2022-11-29T01:56:55.166Z,100069.44
2022-11-29T01:59:30.867Z,100073.79
2022-11-29T02:02:07.574Z,100074.22
2022-11-29T02:04:43.164Z,100074.10
2022-11-29T02:07:15.850Z,100070.98
2022-11-29T02:09:48.039Z,100073.58
2022-11-29T02:12:22.827Z,100076.70
2022-11-29T02:15:22.814Z,100072.14
2022-11-29T02:18:04.343Z,100075.30
2022-11-29T02:21:10.155Z,100078.88
2022-11-29T02:24:08.316Z,100078.73
2022-11-29T02:27:13.261Z,100077.38
2022-11-29T02:30:15.797Z,100074.83
2022-11-29T02:33:14.257Z,100076.88
2022-11-29T02:36:21.676Z,100076.61
2022-11-29T02:39:17.085Z,100075.48
2022-11-29T02:42:06.767Z,100075.02
2022-11-29T02:44:52.937Z,100078.59
2022-11-29T02:47:37.846Z,100079.26
2022-11-29T02:50:21.301Z,100087.79
2022-11-29T02:53:02.987Z,100088.93
2022-11-29T02:55:45.128Z,100091.98
2022-11-29T02:58:27.062Z,100099.08
2022-11-29T03:01:05.599Z,100099.52
2022-11-29T03:03:41.199Z,100098.73
2022-11-29T03:06:24.113Z,100098.02
2022-11-29T03:09:03.720Z,100094.52
2022-11-29T03:11:44.836Z,100097.63
2022-11-29T03:14:25.615Z,100096.71
2022-11-29T03:17:08.973Z,100099.63
2022-11-29T03:19:58.156Z,100100.82
2022-11-29T03:22:43.034Z,100096.75
2022-11-29T03:25:23.626Z,100101.48
2022-11-29T03:28:01.362Z,100106.12
2022-11-29T03:30:38.877Z,100110.02
2022-11-29T03:33:18.233Z,100109.92
2022-11-29T03:36:00.381Z,100109.51
2022-11-29T03:38:39.862Z,100110.48
2022-11-29T03:41:21.415Z,100114.25
2022-11-29T03:44:01.364Z,100111.53
2022-11-29T03:46:38.558Z,100107.10
2022-11-29T03:49:17.591Z,100107.20
2022-11-29T03:51:59.755Z,100107.19
2022-11-29T03:54:40.001Z,100112.75
2022-11-29T03:57:14.995Z,100114.24
2022-11-29T03:59:58.633Z,100118.83
2022-11-29T04:03:01.446Z,100115.77
2022-11-29T04:05:46.090Z,100120.10
2022-11-29T04:08:51.286Z,100124.08
2022-11-29T04:11:59.921Z,100126.49
2022-11-29T04:14:35.833Z,100122.48
2022-11-29T04:17:37.482Z,100123.61
2022-11-29T04:20:41.221Z,100120.92
2022-11-29T04:23:46.277Z,100121.77
2022-11-29T04:27:09.403Z,100124.92
2022-11-29T04:29:53.877Z,100123.76
2022-11-29T04:32:49.480Z,100125.03
2022-11-29T04:35:51.909Z,100128.09
2022-11-29T04:39:02.424Z,100124.70
2022-11-29T04:41:58.679Z,100127.80
2022-11-29T04:44:47.531Z,100132.64
2022-11-29T04:47:50.842Z,100135.03
2022-11-29T04:50:34.415Z,100138.60
2022-11-29T04:53:30.712Z,100140.98
2022-11-29T04:56:11.595Z,100141.23
2022-11-29T04:58:53.038Z,100147.12
2022-11-29T05:01:33.004Z,100146.52
2022-11-29T05:04:14.723Z,100149.95
2022-11-29T05:07:00.220Z,100153.25
2022-11-29T05:09:44.771Z,100160.05
2022-11-29T05:12:24.417Z,100161.91
2022-11-29T05:15:17.924Z,100159.70
2022-11-29T05:18:05.683Z,100159.66
2022-11-29T05:20:46.588Z,100159.77
2022-11-29T05:23:33.602Z,100163.02
2022-11-29T05:26:11.109Z,100164.02
2022-11-29T05:28:51.423Z,100166.27
2022-11-29T05:31:30.918Z,100169.05
2022-11-29T05:34:39.093Z,100171.29
2022-11-29T05:37:24.194Z,100174.27
2022-11-29T05:40:19.143Z,100178.11
2022-11-29T05:43:06.344Z,100179.13
2022-11-29T05:45:45.194Z,100182.43
2022-11-29T05:48:25.985Z,100181.19
2022-11-29T05:51:12.697Z,100184.67
2022-11-29T05:53:54.044Z,100185.31
2022-11-29T05:56:35.503Z,100181.83
2022-11-29T05:59:12.286Z,100184.94
2022-11-29T06:01:53.534Z,100187.83
2022-11-29T06:04:34.344Z,100193.60
2022-11-29T06:07:13.254Z,100190.09
2022-11-29T06:09:51.782Z,100197.38
2022-11-29T06:12:26.850Z,100196.13
2022-11-29T06:15:17.234Z,100198.55
2022-11-29T06:18:08.480Z,100196.98
2022-11-29T06:21:04.465Z,100200.45
2022-11-29T06:23:58.994Z,100198.14
2022-11-29T06:26:58.213Z,100199.11
2022-11-29T06:29:44.049Z,100205.59
2022-11-29T06:32:29.352Z,100207.45
2022-11-29T06:35:05.991Z,100209.98
2022-11-29T06:37:43.057Z,100211.14
2022-11-29T06:40:17.470Z,100213.95
2022-11-29T06:42:50.024Z,100220.25
2022-11-29T06:45:23.657Z,100220.59
2022-11-29T06:48:01.895Z,100223.00
2022-11-29T06:50:45.057Z,100222.23
2022-11-29T06:53:25.480Z,100224.45
2022-11-29T06:56:05.585Z,100220.57
2022-11-29T06:58:47.331Z,100221.60
2022-11-29T07:01:30.276Z,100221.25
2022-11-29T07:04:32.043Z,100219.99
2022-11-29T07:07:05.154Z,100221.91
2022-11-29T07:09:38.734Z,100223.08
2022-11-29T07:12:12.169Z,100224.04
2022-11-29T07:14:45.601Z,100221.71
2022-11-29T07:17:28.030Z,100221.65
2022-11-29T07:20:11.447Z,100223.04
2022-11-29T07:23:02.214Z,100226.83
2022-11-29T07:25:44.536Z,100230.27
2022-11-29T07:28:29.150Z,100230.90
2022-11-29T07:31:07.565Z,100229.42
2022-11-29T07:33:49.109Z,100233.03
2022-11-29T07:36:31.463Z,100236.24
2022-11-29T07:39:05.875Z,100239.49
2022-11-29T07:41:45.744Z,100239.23
2022-11-29T07:44:28.271Z,100237.88
2022-11-29T07:46:58.925Z,100240.06
2022-11-29T07:49:31.089Z,100246.28
2022-11-29T07:52:01.537Z,100237.38
2022-11-29T07:54:33.724Z,100241.15
2022-11-29T07:57:04.245Z,100242.27
2022-11-29T07:59:36.234Z,100251.50
2022-11-29T08:02:11.658Z,100252.14
2022-11-29T08:04:45.876Z,100250.14
2022-11-29T08:07:18.326Z,100250.95
2022-11-29T08:09:50.842Z,100255.38
2022-11-29T08:12:21.543Z,100256.37
2022-11-29T08:14:53.928Z,100256.52
2022-11-29T08:17:24.979Z,100258.70
2022-11-29T08:20:00.027Z,100256.23
2022-11-29T08:22:36.126Z,100250.90
2022-11-29T08:25:07.450Z,100252.77
2022-11-29T08:27:39.991Z,100251.38
2022-11-29T08:30:13.054Z,100253.63
2022-11-29T08:32:49.989Z,100252.56
2022-11-29T08:35:25.154Z,100255.85
2022-11-29T08:37:57.435Z,100256.81
2022-11-29T08:40:29.494Z,100258.20
2022-11-29T08:43:01.773Z,100258.30
2022-11-29T08:45:33.987Z,100260.48
2022-11-29T08:48:04.513Z,100257.25
2022-11-29T08:50:36.508Z,100256.34
2022-11-29T08:53:27.528Z,100258.05
2022-11-29T08:56:08.470Z,100257.95
2022-11-29T08:58:54.186Z,100257.27
2022-11-29T09:01:26.469Z,100260.58
2022-11-29T09:04:02.980Z,100258.27
2022-11-29T09:06:39.026Z,100264.82
2022-11-29T09:09:11.165Z,100266.53
2022-11-29T09:11:43.850Z,100266.95
2022-11-29T09:14:20.083Z,100261.38
2022-11-29T09:16:52.301Z,100265.92
2022-11-29T09:19:22.802Z,100261.55
2022-11-29T09:21:55.220Z,100264.89
2022-11-29T09:24:27.258Z,100268.55
2022-11-29T09:26:59.346Z,100269.04
2022-11-29T09:29:31.368Z,100269.33
2022-11-29T09:32:06.295Z,100268.17
2022-11-29T09:34:38.517Z,100273.44
2022-11-29T09:37:09.160Z,100275.30
2022-11-29T09:39:41.759Z,100275.44
2022-11-29T09:42:39.387Z,100271.55
2022-11-29T09:45:16.927Z,100269.45
2022-11-29T09:48:23.401Z,100272.46
2022-11-29T09:51:07.351Z,100268.41
2022-11-29T09:53:52.758Z,100268.50
2022-11-29T09:56:32.423Z,100271.20
2022-11-29T09:59:10.766Z,100267.46
2022-11-29T10:01:47.287Z,100269.06
2022-11-29T10:04:23.867Z,100265.80
2022-11-29T10:07:03.970Z,100266.86
2022-11-29T10:09:42.304Z,100265.17
2022-11-29T10:12:19.580Z,100263.73
2022-11-29T10:14:57.805Z,100260.09
2022-11-29T10:17:38.313Z,100263.73
2022-11-29T10:20:18.133Z,100257.25
2022-11-29T10:22:55.432Z,100253.86
2022-11-29T10:25:30.767Z,100250.48
2022-11-29T10:28:04.665Z,100254.73
2022-11-29T10:30:38.276Z,100253.75
2022-11-29T10:33:19.278Z,100251.14
2022-11-29T10:35:56.937Z,100252.90
2022-11-29T10:38:31.108Z,100247.70
2022-11-29T10:41:08.702Z,100245.23
2022-11-29T10:43:41.380Z,100249.73
2022-11-29T10:46:19.634Z,100247.79
2022-11-29T10:48:52.227Z,100245.29
2022-11-29T10:51:24.376Z,100248.78
2022-11-29T10:53:55.672Z,100246.45
2022-11-29T10:56:37.554Z,100244.91
2022-11-29T10:59:20.610Z,100245.10
2022-11-29T11:01:53.759Z,100248.30
2022-11-29T11:04:31.423Z,100245.48
2022-11-29T11:07:05.262Z,100248.48
2022-11-29T11:09:40.122Z,100245.41
2022-11-29T11:12:22.071Z,100246.64
2022-11-29T11:15:14.121Z,100245.23
2022-11-29T11:17:58.806Z,100246.07
2022-11-29T11:20:33.019Z,100242.30
2022-11-29T11:23:06.602Z,100250.05
2022-11-29T11:25:41.168Z,100248.16
2022-11-29T11:28:21.537Z,100249.66
2022-11-29T11:30:56.159Z,100257.35
2022-11-29T11:33:31.356Z,100258.74
2022-11-29T11:36:10.135Z,100255.51
2022-11-29T11:38:50.251Z,100255.01
2022-11-29T11:41:49.633Z,100257.52
2022-11-29T11:44:53.697Z,100257.42
2022-11-29T11:47:28.299Z,100263.06
2022-11-29T11:50:12.777Z,100258.15
2022-11-29T11:52:50.609Z,100259.65
2022-11-29T11:55:34.791Z,100259.24
2022-11-29T11:58:18.532Z,100257.04
2022-11-29T12:01:08.894Z,100260.26
2022-11-29T12:03:50.885Z,100259.23
2022-11-29T12:06:36.346Z,100263.16
2022-11-29T12:09:19.533Z,100256.05
2022-11-29T12:12:00.365Z,100257.49
2022-11-29T12:14:39.315Z,100258.97
2022-11-29T12:17:20.790Z,100259.11
2022-11-29T12:20:14.748Z,100260.83
2022-11-29T12:23:00.222Z,100258.29
2022-11-29T12:25:36.948Z,100260.55
2022-11-29T12:28:18.574Z,100262.41
2022-11-29T12:31:00.258Z,100261.34
2022-11-29T12:33:44.883Z,100260.70
2022-11-29T12:36:29.629Z,100259.45
2022-11-29T12:39:12.253Z,100262.24
2022-11-29T12:41:54.183Z,100260.02
2022-11-29T12:44:39.517Z,100268.61
2022-11-29T12:47:37.971Z,100269.09
2022-11-29T12:50:24.634Z,100274.20
2022-11-29T12:53:06.629Z,100273.43
2022-11-29T12:55:49.081Z,100274.92
2022-11-29T12:58:34.223Z,100279.31
2022-11-29T13:01:17.495Z,100281.13
2022-11-29T13:03:58.200Z,100283.63
2022-11-29T13:06:38.847Z,100287.16
2022-11-29T13:09:35.393Z,100284.38
2022-11-29T13:12:13.872Z,100285.75
2022-11-29T13:14:54.010Z,100286.83
2022-11-29T13:17:33.361Z,100291.11
2022-11-29T13:20:21.614Z,100292.56
2022-11-29T13:22:57.560Z,100294.05
2022-11-29T13:25:34.545Z,100298.92
2022-11-29T13:28:12.785Z,100303.49
2022-11-29T13:30:45.718Z,100307.40
2022-11-29T13:33:24.927Z,100307.87
2022-11-29T13:36:02.561Z,100309.29
2022-11-29T13:38:43.660Z,100308.55
2022-11-29T13:41:28.071Z,100307.82
2022-11-29T13:44:08.304Z,100308.33
2022-11-29T13:46:48.225Z,100308.36
2022-11-29T13:49:53.832Z,100308.69
2022-11-29T13:52:36.087Z,100311.73
2022-11-29T13:55:23.058Z,100312.84
2022-11-29T13:58:16.200Z,100316.92
2022-11-29T14:00:53.473Z,100315.04
2022-11-29T14:03:32.486Z,100321.55
2022-11-29T14:06:15.112Z,100316.85
2022-11-29T14:09:18.404Z,100320.79
2022-11-29T14:11:59.019Z,100320.16
2022-11-29T14:14:37.002Z,100323.52
2022-11-29T14:17:48.784Z,100323.49
2022-11-29T14:20:59.444Z,100324.60
2022-11-29T14:23:40.571Z,100330.02
2022-11-29T14:26:32.724Z,100333.11
2022-11-29T14:29:33.983Z,100334.70
2022-11-29T14:32:21.542Z,100331.89
2022-11-29T14:34:56.836Z,100336.27
2022-11-29T14:37:45.684Z,100339.55
2022-11-29T14:40:28.696Z,100340.05
2022-11-29T14:43:01.371Z,100348.64
2022-11-29T14:45:35.380Z,100352.81
2022-11-29T14:48:24.751Z,100353.63
2022-11-29T14:51:10.827Z,100353.63
2022-11-29T14:53:44.642Z,100354.21
2022-11-29T14:56:45.706Z,100356.24
2022-11-29T14:59:52.702Z,100363.05
2022-11-29T15:02:33.684Z,100360.00
2022-11-29T15:05:22.038Z,100359.91
2022-11-29T15:08:09.746Z,100361.02
2022-11-29T15:10:45.139Z,100358.60
2022-11-29T15:13:27.000Z,100359.70
2022-11-29T15:16:23.462Z,100364.13
2022-11-29T15:19:19.563Z,100365.25
2022-11-29T15:22:01.266Z,100368.66
2022-11-29T15:24:33.701Z,100370.65
2022-11-29T15:27:06.169Z,100371.96
2022-11-29T15:29:38.661Z,100373.41
2022-11-29T15:32:15.685Z,100374.11
2022-11-29T15:34:52.218Z,100375.18
2022-11-29T15:37:44.764Z,100378.67
2022-11-29T15:40:19.922Z,100378.48
2022-11-29T15:42:55.808Z,100377.43
2022-11-29T15:45:37.922Z,100375.89
2022-11-29T15:48:20.298Z,100381.42
2022-11-29T15:50:58.004Z,100388.92
2022-11-29T15:53:36.115Z,100393.39
2022-11-29T15:56:16.292Z,100392.26
2022-11-29T15:58:49.186Z,100396.20
2022-11-29T16:01:23.417Z,100399.23
2022-11-29T16:03:58.516Z,100398.63
2022-11-29T16:06:35.737Z,100401.86
2022-11-29T16:09:12.910Z,100400.02
2022-11-29T16:11:45.493Z,100402.73
2022-11-29T16:14:23.140Z,100407.87
2022-11-29T16:16:58.226Z,100407.09
2022-11-29T16:19:33.660Z,100407.28
2022-11-29T16:22:16.357Z,100407.75
2022-11-29T16:24:53.079Z,100410.00
2022-11-29T16:27:26.008Z,100412.14
2022-11-29T16:29:59.336Z,100411.25
2022-11-29T16:32:34.076Z,100416.31
2022-11-29T16:35:14.204Z,100418.20
2022-11-29T16:37:47.779Z,100421.83
2022-11-29T16:40:29.558Z,100425.95
2022-11-29T16:43:20.548Z,100427.79
2022-11-29T16:46:30.147Z,100425.42
2022-11-29T16:49:04.880Z,100430.27
2022-11-29T16:51:47.869Z,100430.86
2022-11-29T16:54:25.319Z,100434.58
2022-11-29T16:56:59.159Z,100433.95
2022-11-29T16:59:32.187Z,100434.40
2022-11-29T17:02:04.315Z,100439.23
2022-11-29T17:04:36.333Z,100435.96
2022-11-29T17:07:12.891Z,100436.61
2022-11-29T17:09:45.793Z,100434.64
2022-11-29T17:12:19.121Z,100435.05
2022-11-29T17:14:51.357Z,100437.40
2022-11-29T17:17:21.849Z,100438.00
2022-11-29T17:19:54.461Z,100438.44
2022-11-29T17:22:26.588Z,100442.09
2022-11-29T17:25:01.085Z,100443.11
2022-11-29T17:27:36.441Z,100445.83
2022-11-29T17:30:11.357Z,100444.08
2022-11-29T17:32:43.599Z,100442.70
2022-11-29T17:35:14.123Z,100445.94
2022-11-29T17:37:46.270Z,100451.84
2022-11-29T17:40:20.224Z,100452.67
2022-11-29T17:42:52.745Z,100456.29
2022-11-29T17:45:24.857Z,100456.75
2022-11-29T17:47:56.834Z,100459.27
2022-11-29T17:50:29.069Z,100459.33
2022-11-29T17:52:59.555Z,100461.21
2022-11-29T17:55:31.547Z,100460.66
2022-11-29T17:58:03.567Z,100466.28
2022-11-29T18:00:35.572Z,100465.00
2022-11-29T18:03:07.613Z,100464.80
2022-11-29T18:05:39.713Z,100465.44
2022-11-29T18:08:10.279Z,100467.21
2022-11-29T18:10:42.190Z,100467.58
2022-11-29T18:13:14.559Z,100467.67
2022-11-29T18:15:45.080Z,100472.80
2022-11-29T18:18:17.168Z,100475.90
2022-11-29T18:20:47.629Z,100473.51
2022-11-29T18:23:19.686Z,100477.10
2022-11-29T18:25:57.057Z,100480.89
2022-11-29T18:28:30.462Z,100476.80
2022-11-29T18:31:07.092Z,100475.63
2022-11-29T18:33:39.901Z,100476.39
2022-11-29T18:36:14.289Z,100478.40
2022-11-29T18:38:47.412Z,100481.15
2022-11-29T18:41:21.117Z,100479.70
2022-11-29T18:43:59.175Z,100479.42
2022-11-29T18:46:32.833Z,100485.46
2022-11-29T18:49:06.367Z,100485.05
2022-11-29T18:51:39.929Z,100484.56
2022-11-29T18:54:12.433Z,100493.20
2022-11-29T18:56:45.769Z,100493.38
2022-11-29T18:59:19.766Z,100492.52
2022-11-29T19:01:52.166Z,100489.33
2022-11-29T19:04:24.656Z,100491.56
2022-11-29T19:06:56.778Z,100493.47
2022-11-29T19:09:28.877Z,100491.85
2022-11-29T19:12:02.339Z,100490.03
2022-11-29T19:14:34.392Z,100495.56
2022-11-29T19:17:05.200Z,100496.58
2022-11-29T19:19:37.478Z,100497.80
2022-11-29T19:22:07.892Z,100499.05
2022-11-29T19:24:39.896Z,100506.01
2022-11-29T19:27:12.300Z,100504.61
2022-11-29T19:29:44.812Z,100507.21
2022-11-29T19:32:17.183Z,100506.05
2022-11-29T19:34:49.736Z,100515.45
2022-11-29T19:37:21.974Z,100519.73
2022-11-29T19:39:54.382Z,100523.46
2022-11-29T19:42:26.805Z,100524.21
2022-11-29T19:45:16.344Z,100525.84
2022-11-29T19:47:51.218Z,100529.73
2022-11-29T19:50:24.023Z,100534.58
2022-11-29T19:52:56.426Z,100539.25
2022-11-29T19:55:29.213Z,100536.92
2022-11-29T19:58:02.184Z,100538.98
2022-11-29T20:00:34.775Z,100546.80
2022-11-29T20:03:07.109Z,100547.63
2022-11-29T20:05:37.573Z,100543.48
2022-11-29T20:08:09.878Z,100548.83
2022-11-29T20:10:40.574Z,100552.35
2022-11-29T20:13:12.760Z,100552.98
2022-11-29T20:15:43.427Z,100551.34
2022-11-29T20:18:15.518Z,100549.37
2022-11-29T20:20:48.094Z,100555.45
2022-11-29T20:23:21.507Z,100554.52
2022-11-29T20:25:55.399Z,100556.85
2022-11-29T20:28:28.529Z,100558.50
2022-11-29T20:31:07.971Z,100560.20
2022-11-29T20:33:42.187Z,100561.70
2022-11-29T20:36:26.942Z,100564.36
2022-11-29T20:39:09.029Z,100562.81
2022-11-29T20:41:46.998Z,100565.80
2022-11-29T20:44:25.671Z,100562.34
2022-11-29T20:46:59.417Z,100562.85
2022-11-29T20:49:32.542Z,100558.48
2022-11-29T20:52:08.403Z,100560.42
2022-11-29T20:54:40.887Z,100560.11
2022-11-29T20:57:13.496Z,100560.30
2022-11-29T20:59:47.625Z,100556.64
2022-11-29T21:02:20.846Z,100559.27
2022-11-29T21:04:53.210Z,100564.05
2022-11-29T21:07:25.681Z,100563.58
2022-11-29T21:10:01.172Z,100564.50
2022-11-29T21:12:35.143Z,100562.98
2022-11-29T21:15:09.958Z,100565.09
2022-11-29T21:17:43.671Z,100563.83
2022-11-29T21:20:25.741Z,100568.20
2022-11-29T21:23:03.104Z,100571.32
2022-11-29T21:25:46.041Z,100576.14
2022-11-29T21:28:19.490Z,100578.30
2022-11-29T21:30:52.749Z,100582.19
2022-11-29T21:33:25.765Z,100586.21
2022-11-29T21:35:59.074Z,100588.48
2022-11-29T21:38:32.397Z,100589.61
2022-11-29T21:41:04.450Z,100593.02
2022-11-29T21:44:05.113Z,100593.46
2022-11-29T21:46:27.440Z,100595.48
2022-11-29T21:48:59.674Z,100593.30
2022-11-29T21:51:31.781Z,100590.94
2022-11-29T21:54:02.381Z,100589.64
2022-11-29T21:56:34.449Z,100591.66
2022-11-29T21:59:06.994Z,100589.10
2022-11-29T22:01:39.082Z,100594.68
2022-11-29T22:04:09.745Z,100592.76
2022-11-29T22:06:41.705Z,100594.90
2022-11-29T22:09:13.804Z,100593.19
2022-11-29T22:11:46.275Z,100594.46
2022-11-29T22:14:19.273Z,100594.52
2022-11-29T22:16:53.585Z,100600.86
2022-11-29T22:19:28.382Z,100601.93
2022-11-29T22:22:02.169Z,100605.08
2022-11-29T22:24:38.875Z,100607.22
2022-11-29T22:27:10.962Z,100609.20
2022-11-29T22:29:41.501Z,100610.63
2022-11-29T22:32:13.663Z,100609.33
2022-11-29T22:34:44.393Z,100611.01
2022-11-29T22:37:16.955Z,100610.58
2022-11-29T22:39:47.538Z,100610.30
2022-11-29T22:42:19.591Z,100612.88
2022-11-29T22:44:50.093Z,100616.78
2022-11-29T22:47:22.048Z,100617.04
2022-11-29T22:49:54.135Z,100618.15
2022-11-29T22:52:26.365Z,100613.63
2022-11-29T22:55:04.291Z,100608.38
2022-11-29T22:57:37.183Z,100609.08
2022-11-29T23:00:13.727Z,100615.39
2022-11-29T23:02:45.841Z,100617.89
2022-11-29T23:05:19.187Z,100615.52
2022-11-29T23:07:54.632Z,100610.69
2022-11-29T23:10:26.934Z,100615.78
2022-11-29T23:12:59.390Z,100615.84
2022-11-29T23:15:31.404Z,100618.00
2022-11-29T23:18:03.718Z,100623.95
2022-11-29T23:20:35.831Z,100621.52
2022-11-29T23:23:06.400Z,100618.71
2022-11-29T23:25:38.458Z,100621.12
2022-11-29T23:28:08.892Z,100624.60
2022-11-29T23:30:41.053Z,100623.52
2022-11-29T23:33:11.577Z,100621.05
2022-11-29T23:35:44.717Z,100622.30
2022-11-29T23:38:17.075Z,100619.23
2022-11-29T23:40:49.309Z,100622.64
2022-11-29T23:43:19.778Z,100619.30
2022-11-29T23:45:51.965Z,100621.21
2022-11-29T23:48:24.329Z,100619.65
2022-11-29T23:50:56.362Z,100619.88
2022-11-29T23:53:28.559Z,100621.05
2022-11-29T23:56:02.505Z,100625.23
2022-11-29T23:58:35.674Z,100623.48
